Terminal Aerodrome Forecast
Issued by NWS

Home | Current Version | Previous Version | Text Only | Print | Product List | Glossary Off
Versions: 1 2 3 4 5 6 7 8 9 10 11 12 13 14 15 16 17 18 19 20 21 22 23 24 25 26 27 28 29 30 31 32

072
FTUS43 KBIS 091130
TAFJMS
TAF
KJMS 091130Z 0912/1012 31005KT P6SM BKN018
     FM091400 VRB03KT P6SM FEW020 SCT150
     FM091800 23008KT P6SM BKN200
     FM092300 26010KT P6SM BKN250
     FM100300 30014KT P6SM FEW250 WS020/32045KT=

USA.gov is the U.S. government's official web portal to all federal, state and local government web resources and services.